VOI101 MMUN-MMMX
Flight info
| Callsign | VOI101 |
|---|---|
| Flight time | N/A |
| Altitude | 38000 |
| Route | UDGUV2A UDGUV UT78 MEDOS DCT UBVOV DCT UMAVO UT101 ENAGA ENAGA3A |
| Aircraft | A20N/M-SDE2E3FGHIRWXY/L |
Departure
| Time | 2026-04-30 22:26 |
|---|---|
| Airport | Cancún International Airport (MMUN) |
Arrival
| Time | N/A |
|---|---|
| Airport | Mexico City Benito Juárez International Airport (MMMX) |
| Time | Latitude | Longitude | Altitude | Speed | Heading |
|---|---|---|---|---|---|
| 2026-04-30 21:52 | 21.03903 | -86.87495 | 26 ft | 0 kts | 27° |
| 2026-04-30 22:16 | 21.03902 | -86.87495 | 26 ft | 0 kts | 27° |
| 2026-04-30 22:16 | 21.03898 | -86.87497 | 26 ft | 0 kts | 27° |
| 2026-04-30 22:17 | 21.03857 | -86.87507 | 25 ft | 2 kts | 356° |
| 2026-04-30 22:17 | 21.03842 | -86.87505 | 24 ft | 2 kts | 345° |
| 2026-04-30 22:17 | 21.03815 | -86.87492 | 24 ft | 2 kts | 324° |
| 2026-04-30 22:18 | 21.03803 | -86.87482 | 25 ft | 2 kts | 313° |
| 2026-04-30 22:18 | 21.03793 | -86.87467 | 25 ft | 0 kts | 303° |
| 2026-04-30 22:20 | 21.03809 | -86.87494 | 24 ft | 5 kts | 303° |
| 2026-04-30 22:20 | 21.03831 | -86.87538 | 24 ft | 7 kts | 279° |
| 2026-04-30 22:21 | 21.03817 | -86.87617 | 24 ft | 15 kts | 269° |
| 2026-04-30 22:21 | 21.03865 | -86.87725 | 24 ft | 16 kts | 303° |
| 2026-04-30 22:21 | 21.03928 | -86.87828 | 24 ft | 17 kts | 304° |
| 2026-04-30 22:21 | 21.04000 | -86.87943 | 24 ft | 19 kts | 304° |
| 2026-04-30 22:22 | 21.04076 | -86.88064 | 26 ft | 20 kts | 303° |
| 2026-04-30 22:22 | 21.04159 | -86.88195 | 28 ft | 21 kts | 308° |
| 2026-04-30 22:22 | 21.04243 | -86.88331 | 30 ft | 21 kts | 302° |
| 2026-04-30 22:22 | 21.04330 | -86.88468 | 33 ft | 22 kts | 304° |
| 2026-04-30 22:23 | 21.04417 | -86.88609 | 35 ft | 23 kts | 303° |
| 2026-04-30 22:23 | 21.04509 | -86.88756 | 35 ft | 24 kts | 303° |
| 2026-04-30 22:23 | 21.04606 | -86.88911 | 36 ft | 24 kts | 304° |
| 2026-04-30 22:23 | 21.04635 | -86.89001 | 36 ft | 11 kts | 247° |
| 2026-04-30 22:24 | 21.04608 | -86.89028 | 36 ft | 0 kts | 213° |
| 2026-04-30 22:24 | 21.04600 | -86.89034 | 36 ft | 3 kts | 213° |
| 2026-04-30 22:24 | 21.04567 | -86.89055 | 35 ft | 7 kts | 200° |
| 2026-04-30 22:25 | 21.04493 | -86.89030 | 34 ft | 13 kts | 117° |
| 2026-04-30 22:25 | 21.04425 | -86.88925 | 34 ft | 38 kts | 124° |
| 2026-04-30 22:25 | 21.04118 | -86.88435 | 30 ft | 115 kts | 124° |
| 2026-04-30 22:25 | 21.03553 | -86.87532 | 84 ft | 168 kts | 126° |
| 2026-04-30 22:26 | 21.02193 | -86.85304 | 1383 ft | 188 kts | 124° |
| 2026-04-30 22:26 | 21.01443 | -86.84203 | 2359 ft | 182 kts | 132° |
| 2026-04-30 22:26 | 21.00518 | -86.83447 | 3361 ft | 173 kts | 155° |
| 2026-04-30 22:27 | 20.99260 | -86.83122 | 3799 ft | 202 kts | 178° |
| 2026-04-30 22:27 | 20.97786 | -86.83320 | 4499 ft | 220 kts | 189° |
| 2026-04-30 22:27 | 20.94925 | -86.84707 | 6203 ft | 246 kts | 227° |
| 2026-04-30 22:28 | 20.93655 | -86.88236 | 7861 ft | 275 kts | 262° |
| 2026-04-30 22:28 | 20.93423 | -86.90288 | 8679 ft | 289 kts | 263° |
| 2026-04-30 22:29 | 20.92676 | -86.96974 | 11466 ft | 317 kts | 263° |
| 2026-04-30 22:29 | 20.92354 | -86.99335 | 12245 ft | 332 kts | 262° |
| 2026-04-30 22:30 | 20.90636 | -87.10274 | 14750 ft | 404 kts | 262° |
| 2026-04-30 22:31 | 20.89259 | -87.19505 | 16875 ft | 435 kts | 262° |
| 2026-04-30 22:32 | 20.87857 | -87.28958 | 19006 ft | 426 kts | 263° |
| 2026-04-30 22:32 | 20.86941 | -87.35236 | 19804 ft | 435 kts | 263° |
| 2026-04-30 22:33 | 20.85523 | -87.44878 | 19841 ft | 440 kts | 263° |
| 2026-04-30 22:33 | 20.84573 | -87.51318 | 19838 ft | 440 kts | 263° |
| 2026-04-30 22:34 | 20.83137 | -87.61007 | 19830 ft | 439 kts | 263° |
| 2026-04-30 22:35 | 20.82183 | -87.67436 | 19826 ft | 440 kts | 263° |
| 2026-04-30 22:36 | 20.80613 | -87.80320 | 19821 ft | 437 kts | 272° |
| 2026-04-30 22:36 | 20.80714 | -87.83553 | 19999 ft | 436 kts | 274° |
| 2026-04-30 22:37 | 20.81066 | -87.93179 | 21917 ft | 429 kts | 274° |
| 2026-04-30 22:37 | 20.81145 | -87.96330 | 22560 ft | 426 kts | 273° |
| 2026-04-30 22:37 | 20.81279 | -88.02637 | 23896 ft | 422 kts | 273° |
| 2026-04-30 22:38 | 20.81400 | -88.08811 | 25196 ft | 418 kts | 273° |
| 2026-04-30 22:38 | 20.81496 | -88.13851 | 26255 ft | 413 kts | 273° |
| 2026-04-30 22:39 | 20.81552 | -88.16921 | 26916 ft | 409 kts | 273° |
| 2026-04-30 22:39 | 20.81712 | -88.25871 | 28903 ft | 393 kts | 273° |
| 2026-04-30 22:40 | 20.81734 | -88.34424 | 30453 ft | 384 kts | 273° |
| 2026-04-30 22:41 | 20.81761 | -88.43048 | 31232 ft | 391 kts | 274° |
| 2026-04-30 22:41 | 20.81782 | -88.48857 | 31750 ft | 395 kts | 274° |
| 2026-04-30 22:42 | 20.81819 | -88.60696 | 32791 ft | 400 kts | 274° |
| 2026-04-30 22:43 | 20.81834 | -88.66666 | 33345 ft | 401 kts | 274° |
| 2026-04-30 22:43 | 20.81847 | -88.72617 | 33917 ft | 402 kts | 274° |
| 2026-04-30 22:44 | 20.81857 | -88.78584 | 34498 ft | 401 kts | 274° |
| 2026-04-30 22:45 | 20.81874 | -88.90416 | 35655 ft | 397 kts | 275° |
| 2026-04-30 22:45 | 20.81881 | -88.96320 | 36052 ft | 398 kts | 275° |
| 2026-04-30 22:46 | 20.81886 | -89.02270 | 36351 ft | 401 kts | 275° |
| 2026-04-30 22:47 | 20.81890 | -89.14233 | 36880 ft | 405 kts | 275° |
| 2026-04-30 22:47 | 20.81889 | -89.20287 | 37055 ft | 409 kts | 275° |
| 2026-04-30 22:48 | 20.81886 | -89.26364 | 37270 ft | 410 kts | 275° |
| 2026-04-30 22:49 | 20.81876 | -89.35519 | 37502 ft | 414 kts | 275° |
| 2026-04-30 22:49 | 20.81860 | -89.44765 | 37694 ft | 418 kts | 275° |
| 2026-04-30 22:51 | 20.81813 | -89.63598 | 37790 ft | 429 kts | 274° |
| 2026-04-30 22:52 | 20.81779 | -89.73198 | 37792 ft | 433 kts | 274° |
| 2026-04-30 22:53 | 20.81725 | -89.86139 | 37791 ft | 438 kts | 274° |
| 2026-04-30 22:53 | 20.81677 | -89.95927 | 37786 ft | 441 kts | 274° |
| 2026-04-30 22:55 | 20.81588 | -90.12338 | 37783 ft | 445 kts | 274° |
| 2026-04-30 22:56 | 20.81505 | -90.25562 | 37790 ft | 447 kts | 274° |
| 2026-04-30 22:57 | 20.81387 | -90.42142 | 37796 ft | 447 kts | 274° |
| 2026-04-30 22:58 | 20.81281 | -90.55399 | 37800 ft | 447 kts | 274° |
| 2026-04-30 22:59 | 20.81102 | -90.75270 | 37799 ft | 447 kts | 273° |